Time;durP1;ratioP1;P1;durP2;ratioP2;P2;SDS_P1;SDS_P2;PMS_P1;PMS_P2;Temp;Humidity;BMP_temperature;BMP_pressure;BME280_temperature;BME280_humidity;BME280_pressure;Samples;Min_cycle;Max_cycle;Signal;HPM_P1;HPM_P2
2022/05/08 00:02:15;;;;;;;;;;;8.80;99.90;;;;;;5015163;28;19925;-77
2022/05/08 00:04:40;;;;;;;;;;;8.80;99.90;;;;;;5053910;28;19921;-76
2022/05/08 00:07:06;;;;;;;;;;;8.80;99.90;;;;;;5041632;28;19921;-76
2022/05/08 00:09:31;;;;;;;;;;;8.70;99.90;;;;;;5048501;28;19924;-75
2022/05/08 00:11:57;;;;;;;;;;;8.70;99.90;;;;;;5049428;28;20374;-76
2022/05/08 00:14:24;;;;;;;;;;;8.70;99.90;;;;;;5034261;28;19931;-76
2022/05/08 00:16:50;;;;;;;;;;;8.60;99.90;;;;;;5033226;28;19925;-76
2022/05/08 00:19:16;;;;;;;;;;;8.60;99.90;;;;;;5016319;28;19921;-76
2022/05/08 00:21:41;;;;;;;;;;;8.60;99.90;;;;;;5033860;28;19937;-76
2022/05/08 00:24:08;;;;;;;;;;;8.60;99.90;;;;;;5070006;28;19920;-77
2022/05/08 00:26:34;;;;;;;;;;;8.50;99.90;;;;;;5035008;28;19920;-75
2022/05/08 00:28:59;;;;;;;;;;;8.50;99.90;;;;;;5036421;28;20007;-76
2022/05/08 00:31:26;;;;;;;;;;;8.40;99.90;;;;;;5053166;28;19928;-75
2022/05/08 00:33:52;;;;;;;;;;;8.30;99.90;;;;;;5029574;28;20398;-76
2022/05/08 00:36:18;;;;;;;;;;;8.30;99.90;;;;;;5035099;28;19924;-75
2022/05/08 00:38:44;;;;;;;;;;;8.30;99.90;;;;;;5053528;28;19921;-76
2022/05/08 00:41:10;;;;;;;;;;;8.20;99.90;;;;;;5019926;28;19932;-76
2022/05/08 00:43:38;;;;;;;;;;;8.20;99.90;;;;;;5036660;28;20298;-77
2022/05/08 00:46:04;;;;;;;;;;;8.20;99.90;;;;;;5051503;28;19927;-75
2022/05/08 00:48:32;;;;;;;;;;;8.10;99.90;;;;;;5048099;28;19967;-76
2022/05/08 00:50:58;;;;;;;;;;;8.10;99.90;;;;;;5022218;28;19967;-75
2022/05/08 00:53:26;;;;;;;;;;;8.10;99.90;;;;;;5034723;28;19974;-75
2022/05/08 00:55:53;;;;;;;;;;;8.00;99.90;;;;;;5053166;28;20020;-76
2022/05/08 00:58:19;;;;;;;;;;;8.00;99.90;;;;;;5052934;28;19920;-75
2022/05/08 01:00:45;;;;;;;;;;;7.90;99.90;;;;;;5053340;28;19925;-76
2022/05/08 01:03:11;;;;;;;;;;;7.90;99.90;;;;;;5020920;28;19921;-75
2022/05/08 01:05:42;;;;;;;;;;;7.90;99.90;;;;;;5029610;28;19931;-76
2022/05/08 01:08:08;;;;;;;;;;;7.80;99.90;;;;;;5034627;28;19932;-76
2022/05/08 01:10:34;;;;;;;;;;;7.80;99.90;;;;;;5035691;28;19929;-76
2022/05/08 01:13:01;;;;;;;;;;;7.80;99.90;;;;;;5038016;28;20295;-76
2022/05/08 01:15:28;;;;;;;;;;;7.70;99.90;;;;;;5052436;28;20271;-75
2022/05/08 01:17:53;;;;;;;;;;;7.70;99.90;;;;;;5052003;28;20043;-75
2022/05/08 01:20:19;;;;;;;;;;;7.60;99.90;;;;;;5036349;28;19959;-77
2022/05/08 01:22:46;;;;;;;;;;;7.60;99.90;;;;;;5053446;28;19927;-77
2022/05/08 01:25:12;;;;;;;;;;;7.60;99.90;;;;;;5066387;28;19929;-76
2022/05/08 01:27:38;;;;;;;;;;;7.60;99.90;;;;;;5051715;28;19921;-76
2022/05/08 01:30:05;;;;;;;;;;;7.50;99.90;;;;;;5015767;28;19925;-76
2022/05/08 01:32:31;;;;;;;;;;;7.50;99.90;;;;;;5052363;28;19925;-77
2022/05/08 01:34:56;;;;;;;;;;;7.50;99.90;;;;;;5029590;28;19971;-75
2022/05/08 01:37:22;;;;;;;;;;;7.50;99.90;;;;;;5034582;28;19921;-75
2022/05/08 01:39:49;;;;;;;;;;;7.40;99.90;;;;;;5052130;28;19921;-75
2022/05/08 01:42:15;;;;;;;;;;;7.40;99.90;;;;;;5035523;28;19928;-76
2022/05/08 01:44:42;;;;;;;;;;;7.40;99.90;;;;;;5035388;28;20302;-76
2022/05/08 01:49:57;;;;;;;;;;;7.30;99.90;;;;;;5052478;28;20378;-75
2022/05/08 01:52:22;;;;;;;;;;;7.30;99.90;;;;;;5019311;28;19944;-76
2022/05/08 01:54:49;;;;;;;;;;;7.30;99.90;;;;;;5035219;28;19921;-76
2022/05/08 01:57:15;;;;;;;;;;;7.20;99.90;;;;;;5035346;28;19925;-75
2022/05/08 01:59:40;;;;;;;;;;;7.20;99.90;;;;;;5036896;28;19928;-75
2022/05/08 02:02:08;;;;;;;;;;;7.10;99.90;;;;;;5050571;28;20054;-75
2022/05/08 02:04:33;;;;;;;;;;;7.10;99.90;;;;;;5020127;28;19928;-75
2022/05/08 02:07:01;;;;;;;;;;;7.00;99.90;;;;;;5013316;28;20000;-75
2022/05/08 02:09:26;;;;;;;;;;;7.00;99.90;;;;;;5047100;28;19987;-76
2022/05/08 02:11:53;;;;;;;;;;;6.90;99.90;;;;;;5018039;28;19925;-75
2022/05/08 02:14:19;;;;;;;;;;;6.80;99.90;;;;;;5032515;28;19925;-75
2022/05/08 02:16:44;;;;;;;;;;;6.80;99.90;;;;;;5034394;28;19925;-76
2022/05/08 02:19:10;;;;;;;;;;;6.80;99.90;;;;;;5036640;28;19921;-75
2022/05/08 02:21:35;;;;;;;;;;;6.70;99.90;;;;;;5052204;28;19992;-75
2022/05/08 02:24:01;;;;;;;;;;;6.60;99.90;;;;;;5052352;28;19931;-78
2022/05/08 02:26:26;;;;;;;;;;;6.40;99.90;;;;;;5033781;28;19928;-77
2022/05/08 02:28:53;;;;;;;;;;;6.30;99.90;;;;;;5051700;28;20306;-75
2022/05/08 02:31:19;;;;;;;;;;;6.20;99.90;;;;;;5052339;28;20298;-75
2022/05/08 02:33:45;;;;;;;;;;;6.20;99.90;;;;;;5052839;28;19921;-76
2022/05/08 02:36:10;;;;;;;;;;;6.20;99.90;;;;;;5051948;28;20016;-75
2022/05/08 02:38:38;;;;;;;;;;;6.10;99.90;;;;;;5036104;28;19943;-75
2022/05/08 02:41:03;;;;;;;;;;;6.10;99.90;;;;;;5034772;28;19924;-75
2022/05/08 02:43:29;;;;;;;;;;;6.00;99.90;;;;;;5052694;28;19982;-75
2022/05/08 02:45:59;;;;;;;;;;;6.00;99.90;;;;;;5036153;28;19921;-75
2022/05/08 02:48:25;;;;;;;;;;;6.00;99.90;;;;;;5034969;28;19929;-76
2022/05/08 02:50:51;;;;;;;;;;;5.90;99.90;;;;;;5032509;28;19921;-75
2022/05/08 02:53:19;;;;;;;;;;;5.80;99.90;;;;;;5035327;28;20299;-75
2022/05/08 02:58:32;;;;;;;;;;;5.70;99.90;;;;;;5034832;28;20371;-75
2022/05/08 03:00:59;;;;;;;;;;;5.60;99.90;;;;;;5038485;28;20364;-75
2022/05/08 03:03:25;;;;;;;;;;;5.60;99.90;;;;;;5022976;28;19932;-75
2022/05/08 03:05:51;;;;;;;;;;;5.60;99.90;;;;;;5053125;28;20349;-75
2022/05/08 03:08:17;;;;;;;;;;;5.60;99.90;;;;;;5044711;28;19964;-75
2022/05/08 03:13:27;;;;;;;;;;;5.50;99.90;;;;;;5039213;28;19943;-75
2022/05/08 03:15:53;;;;;;;;;;;5.40;99.90;;;;;;5054611;28;20485;-75
2022/05/08 03:18:20;;;;;;;;;;;5.40;99.90;;;;;;5054347;28;19921;-75
2022/05/08 03:20:46;;;;;;;;;;;5.40;99.90;;;;;;5054497;28;19964;-74
2022/05/08 03:23:11;;;;;;;;;;;5.40;99.90;;;;;;5038110;28;19968;-75
2022/05/08 03:25:37;;;;;;;;;;;5.30;99.90;;;;;;5037769;28;19928;-75
2022/05/08 03:28:03;;;;;;;;;;;5.30;99.90;;;;;;5036441;28;19979;-75
2022/05/08 03:30:28;;;;;;;;;;;5.30;99.90;;;;;;5053239;28;19920;-76
2022/05/08 03:32:55;;;;;;;;;;;5.30;99.90;;;;;;5038339;28;19925;-75
2022/05/08 03:35:22;;;;;;;;;;;5.30;99.90;;;;;;5054072;28;19921;-76
2022/05/08 03:37:48;;;;;;;;;;;5.30;99.90;;;;;;5033959;28;20007;-75
2022/05/08 03:40:13;;;;;;;;;;;5.30;99.90;;;;;;5020457;28;20450;-75
2022/05/08 03:42:39;;;;;;;;;;;5.20;99.90;;;;;;5055689;28;19921;-75
2022/05/08 03:45:05;;;;;;;;;;;5.20;99.90;;;;;;5053065;28;20357;-76
2022/05/08 03:47:30;;;;;;;;;;;5.20;99.90;;;;;;5053826;28;20043;-75
2022/05/08 03:49:56;;;;;;;;;;;5.20;99.90;;;;;;5035781;28;19948;-75
2022/05/08 03:52:23;;;;;;;;;;;5.10;99.90;;;;;;5055049;28;20012;-75
2022/05/08 03:54:49;;;;;;;;;;;5.10;99.90;;;;;;5054006;28;20016;-76
2022/05/08 03:57:14;;;;;;;;;;;5.10;99.90;;;;;;5036818;28;19975;-75
2022/05/08 03:59:40;;;;;;;;;;;5.10;99.90;;;;;;5040792;28;19925;-75
2022/05/08 04:02:05;;;;;;;;;;;5.10;99.90;;;;;;5057006;28;19920;-76
2022/05/08 04:04:31;;;;;;;;;;;5.10;99.90;;;;;;5023900;28;19959;-76
2022/05/08 04:06:57;;;;;;;;;;;5.10;99.90;;;;;;5054770;28;19967;-75
2022/05/08 04:09:24;;;;;;;;;;;5.10;99.90;;;;;;5030672;28;19928;-75
2022/05/08 04:11:49;;;;;;;;;;;5.10;99.90;;;;;;5038539;28;19974;-75
2022/05/08 04:14:15;;;;;;;;;;;5.20;99.90;;;;;;5031725;28;19921;-75
2022/05/08 04:16:40;;;;;;;;;;;5.10;99.90;;;;;;5053715;28;19928;-75
2022/05/08 04:19:07;;;;;;;;;;;5.10;99.90;;;;;;5041438;28;19920;-76
2022/05/08 04:21:33;;;;;;;;;;;5.20;99.90;;;;;;5057703;28;20436;-75
2022/05/08 04:24:16;;;;;;;;;;;5.20;99.90;;;;;;5059913;28;19925;-75
2022/05/08 04:26:44;;;;;;;;;;;5.20;99.90;;;;;;5057967;28;19924;-76
2022/05/08 04:29:09;;;;;;;;;;;5.20;99.90;;;;;;5059109;28;19933;-75
2022/05/08 04:31:35;;;;;;;;;;;5.30;99.90;;;;;;5040826;28;19924;-75
2022/05/08 04:34:01;;;;;;;;;;;5.30;99.90;;;;;;5040191;28;19920;-76
2022/05/08 04:36:27;;;;;;;;;;;5.30;99.90;;;;;;5041391;28;20004;-76
2022/05/08 04:38:52;;;;;;;;;;;5.40;99.90;;;;;;5038647;28;19956;-77
2022/05/08 04:41:18;;;;;;;;;;;5.40;99.90;;;;;;5057177;28;19920;-75
2022/05/08 04:43:46;;;;;;;;;;;5.50;99.90;;;;;;5042334;28;19925;-75
2022/05/08 04:46:12;;;;;;;;;;;5.50;99.90;;;;;;5041771;28;20368;-75
2022/05/08 04:48:38;;;;;;;;;;;5.50;99.90;;;;;;5041246;28;19960;-75
2022/05/08 04:51:03;;;;;;;;;;;5.60;99.90;;;;;;5058983;28;20341;-75
2022/05/08 04:53:30;;;;;;;;;;;5.60;99.90;;;;;;5058373;28;19931;-75
2022/05/08 04:55:56;;;;;;;;;;;5.60;99.90;;;;;;5040976;28;20383;-75
2022/05/08 04:58:22;;;;;;;;;;;5.70;99.90;;;;;;5041015;28;19921;-75
2022/05/08 05:00:49;;;;;;;;;;;5.70;99.90;;;;;;5024682;28;20347;-76
2022/05/08 05:03:14;;;;;;;;;;;5.80;99.90;;;;;;5040690;28;19929;-75
2022/05/08 05:05:40;;;;;;;;;;;5.80;99.90;;;;;;5031735;28;20382;-75
2022/05/08 05:08:06;;;;;;;;;;;5.90;99.90;;;;;;5071982;28;19921;-75
2022/05/08 05:10:32;;;;;;;;;;;5.90;99.90;;;;;;5013224;28;20390;-75
2022/05/08 05:12:57;;;;;;;;;;;6.00;99.90;;;;;;5038660;28;19921;-75
2022/05/08 05:15:26;;;;;;;;;;;6.10;99.90;;;;;;5040655;28;20283;-75
2022/05/08 05:17:53;;;;;;;;;;;6.20;99.90;;;;;;5057727;28;19928;-77
2022/05/08 05:20:18;;;;;;;;;;;6.20;99.90;;;;;;5042095;28;19940;-75
2022/05/08 05:22:44;;;;;;;;;;;6.30;99.90;;;;;;5058026;28;19925;-75
2022/05/08 05:25:09;;;;;;;;;;;6.50;99.90;;;;;;5041665;28;19995;-77
2022/05/08 05:27:35;;;;;;;;;;;6.50;99.90;;;;;;5041734;28;20360;-75
2022/05/08 05:30:03;;;;;;;;;;;6.60;99.90;;;;;;5040098;28;19921;-75
2022/05/08 05:32:28;;;;;;;;;;;6.70;99.90;;;;;;5057074;28;19921;-75
2022/05/08 05:34:56;;;;;;;;;;;6.70;99.90;;;;;;5040304;28;20012;-76
2022/05/08 05:37:21;;;;;;;;;;;6.90;99.90;;;;;;5037874;28;19929;-75
2022/05/08 05:39:47;;;;;;;;;;;7.00;99.90;;;;;;5020440;28;19944;-75
2022/05/08 05:42:12;;;;;;;;;;;7.20;99.90;;;;;;5057349;28;19925;-75
2022/05/08 05:44:38;;;;;;;;;;;7.40;99.90;;;;;;5040549;28;19921;-76
2022/05/08 05:49:48;;;;;;;;;;;7.50;99.90;;;;;;5059456;28;19920;-75
2022/05/08 05:52:15;;;;;;;;;;;7.60;99.90;;;;;;5056844;28;19932;-75
2022/05/08 05:54:40;;;;;;;;;;;7.80;99.90;;;;;;5040914;28;19924;-76
2022/05/08 05:57:06;;;;;;;;;;;8.00;99.90;;;;;;5057754;28;19928;-75
2022/05/08 05:59:32;;;;;;;;;;;8.20;99.90;;;;;;5058070;28;19932;-76
2022/05/08 06:01:57;;;;;;;;;;;8.50;99.90;;;;;;5058130;28;19985;-76
2022/05/08 06:04:23;;;;;;;;;;;8.70;99.90;;;;;;5059639;28;19966;-78
2022/05/08 06:06:48;;;;;;;;;;;9.00;99.90;;;;;;5041261;28;20382;-76
2022/05/08 06:09:15;;;;;;;;;;;9.20;99.90;;;;;;5058840;28;19924;-76
2022/05/08 06:11:42;;;;;;;;;;;9.40;99.90;;;;;;5051719;28;19952;-76
2022/05/08 06:14:08;;;;;;;;;;;9.70;99.90;;;;;;5059539;28;20326;-76
2022/05/08 06:16:35;;;;;;;;;;;9.90;99.90;;;;;;5044514;28;19944;-76
2022/05/08 06:19:01;;;;;;;;;;;10.00;99.90;;;;;;5057665;28;19920;-78
2022/05/08 06:21:27;;;;;;;;;;;10.00;99.90;;;;;;5061124;28;19932;-76
2022/05/08 06:23:54;;;;;;;;;;;10.10;99.90;;;;;;5059080;28;19920;-77
2022/05/08 06:26:21;;;;;;;;;;;10.20;99.90;;;;;;5056696;28;19974;-78
2022/05/08 06:28:47;;;;;;;;;;;10.30;99.90;;;;;;5039389;28;19924;-77
2022/05/08 06:31:16;;;;;;;;;;;10.30;99.90;;;;;;5053687;28;19921;-77
2022/05/08 06:33:42;;;;;;;;;;;10.40;99.90;;;;;;5038093;28;20498;-77
2022/05/08 06:36:08;;;;;;;;;;;10.50;99.90;;;;;;5037876;28;19921;-77
2022/05/08 06:38:34;;;;;;;;;;;10.70;99.90;;;;;;5038301;28;19921;-77
2022/05/08 06:40:59;;;;;;;;;;;10.90;99.90;;;;;;5038487;28;19966;-75
2022/05/08 06:43:26;;;;;;;;;;;11.00;99.90;;;;;;5039981;28;20126;-76
2022/05/08 06:45:52;;;;;;;;;;;11.00;99.90;;;;;;5053320;28;19981;-79
2022/05/08 06:48:17;;;;;;;;;;;11.10;99.90;;;;;;5049224;28;19964;-78
2022/05/08 06:50:43;;;;;;;;;;;11.20;99.90;;;;;;5056309;28;19931;-79
2022/05/08 06:53:09;;;;;;;;;;;11.30;99.90;;;;;;5020813;28;19936;-78
2022/05/08 06:55:35;;;;;;;;;;;11.40;99.90;;;;;;5020269;28;19921;-78
2022/05/08 06:58:00;;;;;;;;;;;11.40;99.90;;;;;;5056426;28;20394;-78
2022/05/08 07:03:12;;;;;;;;;;;11.40;99.90;;;;;;5049712;28;19928;-77
2022/05/08 07:05:42;;;;;;;;;;;11.60;99.90;;;;;;5055424;28;19921;-77
2022/05/08 07:08:08;;;;;;;;;;;11.70;99.90;;;;;;5035196;28;19921;-76
2022/05/08 07:10:34;;;;;;;;;;;11.70;99.90;;;;;;5034632;28;19929;-78
2022/05/08 07:12:59;;;;;;;;;;;11.90;99.90;;;;;;5044687;28;19921;-78
2022/05/08 07:15:25;;;;;;;;;;;12.00;99.90;;;;;;5053677;28;19920;-78
2022/05/08 07:17:52;;;;;;;;;;;12.30;99.90;;;;;;5056294;28;19920;-78
2022/05/08 07:20:17;;;;;;;;;;;12.40;99.90;;;;;;5039843;28;19925;-78
2022/05/08 07:22:43;;;;;;;;;;;12.60;99.90;;;;;;5038432;28;20390;-80
2022/05/08 07:25:11;;;;;;;;;;;12.80;99.90;;;;;;5041621;28;19925;-77
2022/05/08 07:27:39;;;;;;;;;;;12.90;99.90;;;;;;5055975;28;19921;-79
2022/05/08 07:30:06;;;;;;;;;;;13.10;99.90;;;;;;5055814;28;19920;-78
2022/05/08 07:32:31;;;;;;;;;;;13.20;99.90;;;;;;5027215;28;19921;-76
2022/05/08 07:37:43;;;;;;;;;;;13.40;99.90;;;;;;5055430;28;19932;-79
2022/05/08 07:40:09;;;;;;;;;;;13.50;99.90;;;;;;5056527;28;19921;-83
2022/05/08 07:42:35;;;;;;;;;;;13.60;99.90;;;;;;5056359;28;20298;-77
2022/05/08 07:45:01;;;;;;;;;;;13.70;99.90;;;;;;5024393;28;19929;-78
2022/05/08 07:47:26;;;;;;;;;;;13.70;99.90;;;;;;5059653;28;19975;-78
2022/05/08 07:49:52;;;;;;;;;;;13.80;99.90;;;;;;5041998;28;19931;-80
2022/05/08 07:52:19;;;;;;;;;;;13.70;99.90;;;;;;5039871;28;19921;-77
2022/05/08 07:54:44;;;;;;;;;;;13.80;99.90;;;;;;5055132;28;19925;-79
2022/05/08 07:57:10;;;;;;;;;;;13.90;99.90;;;;;;5058526;28;19940;-77
2022/05/08 07:59:35;;;;;;;;;;;14.10;99.90;;;;;;5043045;28;19944;-78
2022/05/08 08:02:02;;;;;;;;;;;14.10;99.90;;;;;;5027184;28;19925;-77
2022/05/08 08:04:29;;;;;;;;;;;14.10;99.90;;;;;;5040337;28;19933;-79
2022/05/08 08:06:54;;;;;;;;;;;14.30;99.90;;;;;;5060620;28;19976;-77
2022/05/08 08:09:21;;;;;;;;;;;14.30;98.90;;;;;;5056218;28;20394;-78
2022/05/08 08:11:47;;;;;;;;;;;14.30;98.30;;;;;;5056139;28;19925;-78
2022/05/08 08:14:13;;;;;;;;;;;14.40;99.60;;;;;;5052688;28;19925;-79
2022/05/08 08:16:39;;;;;;;;;;;14.50;99.90;;;;;;5022184;28;20345;-80
2022/05/08 08:19:04;;;;;;;;;;;14.50;99.90;;;;;;5058379;28;20235;-81
2022/05/08 08:21:30;;;;;;;;;;;14.50;99.90;;;;;;5042300;28;19927;-79
2022/05/08 08:23:55;;;;;;;;;;;14.50;99.90;;;;;;5056632;28;19936;-78
2022/05/08 08:26:25;;;;;;;;;;;14.50;99.90;;;;;;5059415;28;19928;-79
2022/05/08 08:28:51;;;;;;;;;;;14.50;99.90;;;;;;5056871;28;20370;-79
2022/05/08 08:31:16;;;;;;;;;;;14.60;99.90;;;;;;5058439;28;19921;-78
2022/05/08 08:33:44;;;;;;;;;;;14.50;97.40;;;;;;5056398;28;19924;-77
2022/05/08 08:36:10;;;;;;;;;;;14.50;98.40;;;;;;5054893;28;19982;-78
2022/05/08 08:38:36;;;;;;;;;;;14.70;99.20;;;;;;5054044;28;20379;-78
2022/05/08 08:41:04;;;;;;;;;;;14.90;97.10;;;;;;5038431;28;19924;-80
2022/05/08 08:49:02;;;;;;;;;;;15.70;94.60;;;;;;5055607;28;20370;-78
2022/05/08 08:51:27;;;;;;;;;;;15.70;93.00;;;;;;5053997;28;19928;-78
2022/05/08 08:53:54;;;;;;;;;;;15.50;92.90;;;;;;5038386;28;19988;-77
2022/05/08 08:56:21;;;;;;;;;;;15.40;94.20;;;;;;5056266;28;19943;-79
2022/05/08 08:58:48;;;;;;;;;;;15.50;95.10;;;;;;5055330;28;19920;-79
2022/05/08 09:01:14;;;;;;;;;;;15.70;95.70;;;;;;5052274;28;19933;-81
2022/05/08 09:03:40;;;;;;;;;;;15.90;95.20;;;;;;5055471;28;20296;-79
2022/05/08 09:06:08;;;;;;;;;;;16.00;95.90;;;;;;5053921;28;19929;-77
2022/05/08 09:08:35;;;;;;;;;;;16.00;96.30;;;;;;5052161;28;19967;-78
2022/05/08 09:11:01;;;;;;;;;;;16.00;96.70;;;;;;5052177;28;19928;-78
2022/05/08 09:13:27;;;;;;;;;;;15.90;95.50;;;;;;5050503;28;19996;-79
2022/05/08 09:16:04;;;;;;;;;;;16.00;96.10;;;;;;5035629;28;19974;-78
2022/05/08 09:18:41;;;;;;;;;;;16.30;96.40;;;;;;5039561;28;19941;-78
2022/05/08 09:24:05;;;;;;;;;;;16.50;91.30;;;;;;5038448;28;19994;-78
2022/05/08 09:26:31;;;;;;;;;;;16.60;92.30;;;;;;5054638;28;19921;-77
2022/05/08 09:28:57;;;;;;;;;;;16.60;93.30;;;;;;5037372;28;19921;-78
2022/05/08 09:31:24;;;;;;;;;;;16.70;93.60;;;;;;5055750;28;19924;-78
2022/05/08 09:33:53;;;;;;;;;;;16.70;92.90;;;;;;5039288;28;19933;-78
2022/05/08 09:36:19;;;;;;;;;;;16.90;92.40;;;;;;5040832;28;19935;-77
2022/05/08 09:38:46;;;;;;;;;;;17.10;85.50;;;;;;5056712;28;19925;-79
2022/05/08 09:41:12;;;;;;;;;;;17.20;88.50;;;;;;5039873;28;19921;-80
2022/05/08 09:43:40;;;;;;;;;;;17.80;90.30;;;;;;5056212;28;19974;-75
2022/05/08 09:46:06;;;;;;;;;;;18.10;85.60;;;;;;5056168;28;20015;-78
2022/05/08 09:48:34;;;;;;;;;;;18.60;85.00;;;;;;5057193;28;20026;-78
2022/05/08 09:51:01;;;;;;;;;;;19.20;80.50;;;;;;5058000;28;19988;-80
2022/05/08 09:53:27;;;;;;;;;;;19.70;75.80;;;;;;5019211;28;19927;-77
2022/05/08 09:55:53;;;;;;;;;;;20.20;76.80;;;;;;5040404;28;20381;-77
2022/05/08 09:58:18;;;;;;;;;;;20.90;78.00;;;;;;5037292;28;19929;-78
2022/05/08 10:00:45;;;;;;;;;;;21.40;72.80;;;;;;5054202;28;19921;-77
2022/05/08 10:03:11;;;;;;;;;;;21.90;65.50;;;;;;5023637;28;19974;-76
2022/05/08 10:05:38;;;;;;;;;;;21.90;62.50;;;;;;5040212;28;19933;-78
2022/05/08 10:08:04;;;;;;;;;;;21.90;63.30;;;;;;5056426;28;20345;-80
2022/05/08 10:16:38;;;;;;;;;;;22.70;63.20;;;;;;5049278;28;19947;-77
2022/05/08 10:24:32;;;;;;;;;;;23.40;67.90;;;;;;5031266;28;20317;-77
2022/05/08 10:27:07;;;;;;;;;;;23.50;68.10;;;;;;5053271;28;20024;-80
2022/05/08 10:29:33;;;;;;;;;;;23.30;68.40;;;;;;5053060;28;19932;-78
2022/05/08 10:31:58;;;;;;;;;;;23.40;63.70;;;;;;5057720;28;19920;-81
2022/05/08 10:34:34;;;;;;;;;;;23.20;58.40;;;;;;5054802;28;20021;-79
2022/05/08 10:37:19;;;;;;;;;;;23.00;60.70;;;;;;5020334;28;20019;-77
2022/05/08 10:39:47;;;;;;;;;;;23.00;62.10;;;;;;5036013;28;19921;-78
2022/05/08 10:42:33;;;;;;;;;;;23.10;63.70;;;;;;5039934;28;19944;-77
2022/05/08 10:45:00;;;;;;;;;;;23.20;64.80;;;;;;5034884;28;20375;-79
2022/05/08 10:47:41;;;;;;;;;;;23.30;64.40;;;;;;5053140;28;19927;-78
2022/05/08 10:50:08;;;;;;;;;;;23.40;64.90;;;;;;5051318;28;19929;-78
2022/05/08 10:52:39;;;;;;;;;;;23.40;63.50;;;;;;5037289;28;19928;-78
2022/05/08 10:55:15;;;;;;;;;;;23.40;63.80;;;;;;5035131;28;20486;-79
2022/05/08 10:57:41;;;;;;;;;;;23.50;57.90;;;;;;5034671;28;19925;-78
2022/05/08 11:00:07;;;;;;;;;;;23.30;58.60;;;;;;5051300;28;19920;-75
2022/05/08 11:02:39;;;;;;;;;;;23.40;59.80;;;;;;5051502;28;19929;-77
2022/05/08 11:05:05;;;;;;;;;;;23.40;60.00;;;;;;5051296;28;19929;-80
2022/05/08 11:07:31;;;;;;;;;;;23.40;60.50;;;;;;5037458;28;20609;-75
2022/05/08 11:10:00;;;;;;;;;;;23.40;58.30;;;;;;5036912;28;20678;-79
2022/05/08 11:12:28;;;;;;;;;;;23.40;59.60;;;;;;5055039;28;19920;-78
2022/05/08 11:15:06;;;;;;;;;;;23.50;59.50;;;;;;5050542;28;19971;-79
2022/05/08 11:17:31;;;;;;;;;;;23.60;58.90;;;;;;5047597;28;20242;-77
2022/05/08 11:20:00;;;;;;;;;;;23.70;59.40;;;;;;5053254;28;20310;-76
2022/05/08 11:22:26;;;;;;;;;;;23.70;56.50;;;;;;5049306;28;20386;-80
2022/05/08 11:24:51;;;;;;;;;;;23.80;57.60;;;;;;5054641;28;19974;-77
2022/05/08 11:27:17;;;;;;;;;;;23.80;55.20;;;;;;5052252;28;19929;-79
2022/05/08 11:29:47;;;;;;;;;;;23.80;56.70;;;;;;5053043;28;19925;-77
2022/05/08 11:38:00;;;;;;;;;;;23.90;55.90;;;;;;5055244;28;19920;-76
2022/05/08 11:40:26;;;;;;;;;;;23.90;56.20;;;;;;5035819;28;19925;-78
2022/05/08 11:42:52;;;;;;;;;;;24.00;56.90;;;;;;5053519;28;20321;-76
2022/05/08 11:45:21;;;;;;;;;;;24.10;56.50;;;;;;5049824;28;20057;-78
2022/05/08 11:47:49;;;;;;;;;;;24.20;56.90;;;;;;5033349;28;19928;-77
2022/05/08 11:50:14;;;;;;;;;;;24.30;57.40;;;;;;5052182;28;19924;-80
2022/05/08 11:52:43;;;;;;;;;;;24.40;57.00;;;;;;5050268;28;19955;-80
2022/05/08 11:55:08;;;;;;;;;;;24.50;53.10;;;;;;5035583;28;20534;-77
2022/05/08 11:57:40;;;;;;;;;;;24.30;51.10;;;;;;5034667;28;20307;-80
2022/05/08 12:00:06;;;;;;;;;;;24.10;50.70;;;;;;5049598;28;20456;-77
2022/05/08 12:02:40;;;;;;;;;;;24.00;52.10;;;;;;5023906;28;19925;-79
2022/05/08 12:05:06;;;;;;;;;;;24.00;50.50;;;;;;5037673;28;20379;-78
2022/05/08 12:07:37;;;;;;;;;;;23.90;49.40;;;;;;5049436;28;19927;-80
2022/05/08 12:10:03;;;;;;;;;;;23.60;50.60;;;;;;5053431;28;19931;-78
2022/05/08 12:12:29;;;;;;;;;;;23.70;51.00;;;;;;5055578;28;19925;-77
2022/05/08 12:14:56;;;;;;;;;;;23.70;49.10;;;;;;5055184;28;19971;-77
2022/05/08 12:17:22;;;;;;;;;;;23.50;48.90;;;;;;5049917;28;19921;-78
2022/05/08 12:19:53;;;;;;;;;;;23.40;48.30;;;;;;5054634;28;20422;-78
2022/05/08 12:22:20;;;;;;;;;;;23.20;49.70;;;;;;5057869;28;19936;-77
2022/05/08 12:24:46;;;;;;;;;;;23.30;50.90;;;;;;5059027;28;20033;-78
2022/05/08 12:27:12;;;;;;;;;;;23.30;51.60;;;;;;5056703;28;19928;-79
2022/05/08 12:29:38;;;;;;;;;;;23.30;51.70;;;;;;5055797;28;20387;-77
2022/05/08 12:32:04;;;;;;;;;;;23.30;52.00;;;;;;5038116;28;19921;-78
2022/05/08 12:34:29;;;;;;;;;;;23.30;52.50;;;;;;5051475;28;19924;-78
2022/05/08 12:36:57;;;;;;;;;;;23.40;52.90;;;;;;5019784;28;19954;-78
2022/05/08 12:39:22;;;;;;;;;;;23.50;52.20;;;;;;5071474;28;20020;-77
2022/05/08 12:41:48;;;;;;;;;;;23.70;52.70;;;;;;5039117;28;19956;-81
2022/05/08 12:44:14;;;;;;;;;;;23.70;52.60;;;;;;5054762;28;19929;-80
2022/05/08 12:46:39;;;;;;;;;;;23.70;53.00;;;;;;5053327;28;19928;-79
2022/05/08 12:49:05;;;;;;;;;;;23.80;52.60;;;;;;5027740;28;19927;-79
2022/05/08 12:51:32;;;;;;;;;;;23.60;51.60;;;;;;5055025;28;20003;-78
2022/05/08 12:54:00;;;;;;;;;;;23.60;51.10;;;;;;5042959;28;19933;-78
2022/05/08 12:56:25;;;;;;;;;;;23.50;51.40;;;;;;5021476;28;19929;-77
2022/05/08 13:01:37;;;;;;;;;;;23.50;51.90;;;;;;5058110;28;21094;-78
2022/05/08 13:04:04;;;;;;;;;;;23.40;48.90;;;;;;5040209;28;19924;-79
2022/05/08 13:06:31;;;;;;;;;;;23.40;50.30;;;;;;5056832;28;20402;-78
2022/05/08 13:08:56;;;;;;;;;;;23.30;50.00;;;;;;5054184;28;19943;-77
2022/05/08 13:11:23;;;;;;;;;;;23.30;51.00;;;;;;5067604;28;19943;-77
2022/05/08 13:13:49;;;;;;;;;;;23.30;46.70;;;;;;5057178;28;19967;-79
2022/05/08 13:16:15;;;;;;;;;;;23.10;48.30;;;;;;5037603;28;20002;-77
2022/05/08 13:18:40;;;;;;;;;;;23.10;49.60;;;;;;5030340;28;20021;-76
2022/05/08 13:21:06;;;;;;;;;;;23.20;49.80;;;;;;5056524;28;19921;-77
2022/05/08 13:23:32;;;;;;;;;;;23.20;50.60;;;;;;5038221;28;19925;-78
2022/05/08 13:25:59;;;;;;;;;;;23.20;50.70;;;;;;5023086;28;20321;-77
2022/05/08 13:28:29;;;;;;;;;;;23.20;51.00;;;;;;5039519;28;19971;-77
2022/05/08 13:30:55;;;;;;;;;;;23.20;50.70;;;;;;5059389;28;20039;-77
2022/05/08 13:33:20;;;;;;;;;;;23.10;50.70;;;;;;5057010;28;20390;-77
2022/05/08 13:35:47;;;;;;;;;;;23.00;51.20;;;;;;5056696;28;20341;-78
2022/05/08 13:38:13;;;;;;;;;;;23.10;51.40;;;;;;5055769;28;19929;-78
2022/05/08 13:40:39;;;;;;;;;;;23.10;52.00;;;;;;5038754;28;19920;-78
2022/05/08 13:43:05;;;;;;;;;;;23.10;50.90;;;;;;5072748;28;19936;-76
2022/05/08 13:45:32;;;;;;;;;;;22.90;45.10;;;;;;5055554;28;19932;-79
2022/05/08 13:47:57;;;;;;;;;;;22.50;47.20;;;;;;5039993;28;20280;-77
2022/05/08 13:50:25;;;;;;;;;;;22.50;48.70;;;;;;5039154;28;22247;-78
2022/05/08 13:52:51;;;;;;;;;;;22.50;49.30;;;;;;5039294;28;19935;-78
2022/05/08 13:55:17;;;;;;;;;;;22.50;49.70;;;;;;5038558;28;19993;-78
2022/05/08 13:57:43;;;;;;;;;;;22.40;50.00;;;;;;5036391;28;20459;-80
2022/05/08 14:00:14;;;;;;;;;;;22.30;50.40;;;;;;5055904;28;20284;-78
2022/05/08 14:02:42;;;;;;;;;;;22.30;50.50;;;;;;5055084;28;19932;-76
2022/05/08 14:05:09;;;;;;;;;;;22.40;50.30;;;;;;5056534;28;20362;-79
2022/05/08 14:07:38;;;;;;;;;;;22.30;48.30;;;;;;5057683;28;20306;-78
2022/05/08 14:10:07;;;;;;;;;;;22.20;48.30;;;;;;5055348;28;19947;-77
2022/05/08 14:12:33;;;;;;;;;;;22.00;47.60;;;;;;5056265;28;19928;-78
2022/05/08 14:14:58;;;;;;;;;;;21.70;48.70;;;;;;5020950;28;20051;-78
2022/05/08 14:17:24;;;;;;;;;;;21.60;47.90;;;;;;5038190;28;19920;-76
2022/05/08 14:19:51;;;;;;;;;;;21.40;48.80;;;;;;5049372;28;19921;-77
2022/05/08 14:22:18;;;;;;;;;;;21.40;49.60;;;;;;5041773;28;20306;-76
2022/05/08 14:24:43;;;;;;;;;;;21.40;50.40;;;;;;5058126;28;19956;-80
2022/05/08 14:27:09;;;;;;;;;;;21.40;50.80;;;;;;5058202;28;19921;-79
2022/05/08 14:29:35;;;;;;;;;;;21.40;50.40;;;;;;5038860;28;20394;-79
2022/05/08 14:37:30;;;;;;;;;;;21.10;51.70;;;;;;5054990;28;19921;-78
2022/05/08 14:39:56;;;;;;;;;;;21.00;51.80;;;;;;5054303;28;20394;-77
2022/05/08 14:42:23;;;;;;;;;;;20.80;49.90;;;;;;5057913;28;19986;-77
2022/05/08 14:44:49;;;;;;;;;;;20.60;50.80;;;;;;5054785;28;20007;-77
2022/05/08 14:47:16;;;;;;;;;;;20.60;51.50;;;;;;5051199;28;20004;-78
2022/05/08 14:49:43;;;;;;;;;;;20.50;52.00;;;;;;5036056;28;20249;-77
2022/05/08 14:52:08;;;;;;;;;;;20.40;52.30;;;;;;5054947;28;19997;-78
2022/05/08 14:54:36;;;;;;;;;;;20.30;52.80;;;;;;5035854;28;19921;-82
2022/05/08 14:57:02;;;;;;;;;;;20.20;53.10;;;;;;5057545;28;19925;-75
2022/05/08 14:59:27;;;;;;;;;;;20.10;53.20;;;;;;5055406;28;19921;-75
2022/05/08 15:01:53;;;;;;;;;;;19.90;52.70;;;;;;5039273;28;19925;-77
2022/05/08 15:04:21;;;;;;;;;;;19.80;53.00;;;;;;5053818;28;19921;-77
2022/05/08 15:06:47;;;;;;;;;;;19.60;53.10;;;;;;5035638;28;19955;-78
2022/05/08 15:09:13;;;;;;;;;;;19.40;53.60;;;;;;5050998;28;20310;-79
2022/05/08 15:11:40;;;;;;;;;;;19.20;54.10;;;;;;5053595;28;20004;-78